createdAt,value
2022-08-09T00:00:11.334Z,20.46
2022-08-09T00:01:54.731Z,20.37
2022-08-09T00:04:05.700Z,20.33
2022-08-09T00:06:15.687Z,20.31
2022-08-09T00:07:13.123Z,20.26
2022-08-09T00:08:48.730Z,20.23
2022-08-09T00:10:24.517Z,20.21
2022-08-09T00:12:03.516Z,20.16
2022-08-09T00:13:38.472Z,20.17
2022-08-09T00:15:14.639Z,20.14
2022-08-09T00:16:47.053Z,20.15
2022-08-09T00:18:19.813Z,20.16
2022-08-09T00:19:53.601Z,20.16
2022-08-09T00:21:26.728Z,20.16
2022-08-09T00:22:58.770Z,20.17
2022-08-09T00:24:50.879Z,20.14
2022-08-09T00:26:30.102Z,20.10
2022-08-09T00:28:06.990Z,20.03
2022-08-09T00:30:23.587Z,19.97
2022-08-09T00:31:58.928Z,19.93
2022-08-09T00:33:32.672Z,19.91
2022-08-09T00:35:17.170Z,19.93
2022-08-09T00:36:49.576Z,19.94
2022-08-09T00:38:21.932Z,19.98
2022-08-09T00:40:09.430Z,19.99
2022-08-09T00:44:10.392Z,19.97
2022-08-09T00:44:10.959Z,19.92
2022-08-09T00:45:30.789Z,19.86
2022-08-09T00:47:07.153Z,19.81
2022-08-09T00:48:39.227Z,19.81
2022-08-09T02:21:27.499Z,18.55
2022-08-09T02:23:07.540Z,18.57
2022-08-09T02:24:41.146Z,18.55
2022-08-09T02:26:24.994Z,18.55
2022-08-09T02:28:20.702Z,18.51
2022-08-09T02:29:56.721Z,18.47
2022-08-09T02:31:39.821Z,18.46
2022-08-09T02:33:17.020Z,18.45
2022-08-09T02:34:55.907Z,18.46
2022-08-09T02:36:34.694Z,18.45
2022-08-09T02:38:06.995Z,18.43
2022-08-09T02:39:45.252Z,18.44
2022-08-09T02:41:42.665Z,18.41
2022-08-09T02:43:15.425Z,18.39
2022-08-09T02:44:54.128Z,18.40
2022-08-09T02:46:28.477Z,18.36
2022-08-09T02:48:19.435Z,18.34
2022-08-09T02:50:14.158Z,18.30
2022-08-09T02:51:52.208Z,18.26
2022-08-09T02:53:32.018Z,18.25
2022-08-09T02:55:20.878Z,18.20
2022-08-09T02:56:57.047Z,18.19
2022-08-09T02:58:32.794Z,18.17
2022-08-09T03:00:20.722Z,18.12
2022-08-09T03:02:06.187Z,18.09
2022-08-09T03:04:16.651Z,18.07
2022-08-09T03:05:34.366Z,18.02
2022-08-09T03:07:13.983Z,17.95
2022-08-09T03:08:47.377Z,17.95
2022-08-09T03:10:19.954Z,17.94
2022-08-09T03:12:05.944Z,17.93
2022-08-09T03:13:58.423Z,17.92
2022-08-09T03:15:40.432Z,17.88
2022-08-09T03:17:27.527Z,17.88
2022-08-09T03:19:01.586Z,17.89
2022-08-09T03:20:34.367Z,17.85
2022-08-09T03:22:12.383Z,17.83
2022-08-09T03:23:58.607Z,17.79
2022-08-09T03:25:57.897Z,17.76
2022-08-09T03:27:29.579Z,17.75
2022-08-09T03:29:22.993Z,17.73
2022-08-09T03:30:56.226Z,17.74
2022-08-09T03:32:31.122Z,17.78
2022-08-09T03:34:03.796Z,17.77
2022-08-09T03:36:14.138Z,17.76
2022-08-09T03:37:55.774Z,17.76
2022-08-09T03:39:22.430Z,17.74
2022-08-09T03:40:58.447Z,17.73
2022-08-09T03:42:31.036Z,17.72
2022-08-09T03:44:08.449Z,17.70
2022-08-09T03:46:05.364Z,17.72
2022-08-09T03:47:39.948Z,17.73
2022-08-09T03:49:17.490Z,17.72
2022-08-09T03:50:52.341Z,17.70
2022-08-09T03:52:26.122Z,17.68
2022-08-09T03:54:00.166Z,17.65
2022-08-09T03:55:35.915Z,17.66
2022-08-09T03:57:20.107Z,17.64
2022-08-09T03:58:53.056Z,17.63
2022-08-09T04:00:27.226Z,17.65
2022-08-09T04:01:59.528Z,17.67
2022-08-09T04:03:45.969Z,17.68
2022-08-09T04:05:27.541Z,17.69
2022-08-09T04:07:00.360Z,17.72
2022-08-09T04:08:33.791Z,17.75
2022-08-09T04:10:06.457Z,17.78
2022-08-09T04:11:55.660Z,17.80
2022-08-09T04:14:36.968Z,17.83
2022-08-09T04:15:40.562Z,17.86
2022-08-09T04:17:16.938Z,17.90
2022-08-09T04:18:50.991Z,17.93
2022-08-09T04:20:23.672Z,17.99
2022-08-09T04:21:58.454Z,18.02
2022-08-09T04:23:30.533Z,18.04
2022-08-09T04:25:03.576Z,18.08
2022-08-09T04:26:38.046Z,18.11
2022-08-09T04:28:10.822Z,18.15
2022-08-09T04:29:49.619Z,18.17
2022-08-09T04:31:22.422Z,18.19
2022-08-09T04:33:01.253Z,18.22
2022-08-09T04:34:36.653Z,18.28
2022-08-09T04:36:08.936Z,18.37
2022-08-09T04:37:45.387Z,18.48
2022-08-09T04:39:18.866Z,18.59
2022-08-09T04:40:56.442Z,18.68
2022-08-09T04:42:31.720Z,18.80
2022-08-09T04:44:12.325Z,18.91
2022-08-09T04:45:53.455Z,19.02
2022-08-09T04:47:27.347Z,19.14
2022-08-09T04:49:17.526Z,19.25
2022-08-09T04:51:03.186Z,19.39
2022-08-09T04:52:36.098Z,19.47
2022-08-09T04:54:09.911Z,19.56
2022-08-09T04:55:58.057Z,19.63
2022-08-09T04:57:54.005Z,19.68
2022-08-09T04:59:24.050Z,19.75
2022-08-09T05:01:03.089Z,19.80
2022-08-09T05:02:36.073Z,19.84
2022-08-09T05:04:08.457Z,19.87
2022-08-09T05:05:52.122Z,19.92
2022-08-09T05:07:33.163Z,20.03
2022-08-09T05:09:05.340Z,20.13
2022-08-09T05:10:39.088Z,20.24
2022-08-09T05:12:12.528Z,20.36
2022-08-09T05:13:44.940Z,20.54
2022-08-09T05:15:24.599Z,20.70
2022-08-09T05:18:36.706Z,20.89
2022-08-09T05:19:02.903Z,21.08
2022-08-09T05:20:35.119Z,21.21
2022-08-09T05:22:08.278Z,21.33
2022-08-09T05:24:02.375Z,21.45
2022-08-09T05:25:36.799Z,21.54
2022-08-09T05:27:09.260Z,21.65
2022-08-09T05:28:46.131Z,21.72
2022-08-09T05:30:19.546Z,21.80
2022-08-09T05:31:56.961Z,21.89
2022-08-09T05:33:32.892Z,21.97
2022-08-09T05:35:06.287Z,22.06
2022-08-09T05:36:39.892Z,22.10
2022-08-09T05:38:21.709Z,22.18
2022-08-09T05:39:54.379Z,22.22
2022-08-09T05:41:26.936Z,22.28
2022-08-09T05:42:59.367Z,22.34
2022-08-09T05:44:34.612Z,22.36
2022-08-09T05:46:07.675Z,22.41
2022-08-09T05:47:52.242Z,22.47
2022-08-09T05:50:24.510Z,22.52
2022-08-09T05:51:42.600Z,22.60
2022-08-09T05:53:21.434Z,22.70
2022-08-09T05:54:53.999Z,22.79
2022-08-09T05:56:28.809Z,22.90
2022-08-09T05:58:00.853Z,22.95
2022-08-09T05:59:33.241Z,23.02
2022-08-09T06:01:06.731Z,23.10
2022-08-09T06:02:38.813Z,23.20
2022-08-09T06:04:23.481Z,23.24
2022-08-09T06:06:04.333Z,23.31
2022-08-09T06:07:38.262Z,23.38
2022-08-09T06:09:40.799Z,23.44
2022-08-09T06:11:16.430Z,23.54
2022-08-09T06:13:02.788Z,23.63
2022-08-09T06:14:35.715Z,23.75
2022-08-09T06:16:08.555Z,23.82
2022-08-09T06:17:42.399Z,23.91
2022-08-09T06:19:19.283Z,23.97
2022-08-09T06:20:57.140Z,24.08
2022-08-09T06:22:29.924Z,24.19
2022-08-09T06:24:02.667Z,24.28
2022-08-09T06:25:35.103Z,24.38
2022-08-09T06:27:07.642Z,24.44
2022-08-09T06:28:43.372Z,24.53
2022-08-09T06:30:16.067Z,24.62
2022-08-09T06:32:08.501Z,24.70
2022-08-09T06:33:42.062Z,24.74
2022-08-09T06:35:21.340Z,24.78
2022-08-09T06:37:13.896Z,24.88
2022-08-09T06:38:50.150Z,24.97
2022-08-09T06:40:26.190Z,25.03
2022-08-09T06:42:11.177Z,25.09
2022-08-09T06:43:43.855Z,25.14
2022-08-09T06:46:04.719Z,25.22
2022-08-09T06:47:08.553Z,25.30
2022-08-09T06:48:43.162Z,25.34
2022-08-09T06:50:19.274Z,25.37
2022-08-09T06:51:54.871Z,25.42
2022-08-09T06:53:33.348Z,25.50
2022-08-09T06:55:12.767Z,25.58
2022-08-09T06:56:46.492Z,25.65
2022-08-09T07:00:48.978Z,25.78
2022-08-09T07:00:52.658Z,25.69
2022-08-09T07:02:05.005Z,25.84
2022-08-09T07:03:39.471Z,25.88
2022-08-09T07:05:24.955Z,25.98
2022-08-09T07:07:59.922Z,26.07
2022-08-09T07:09:57.309Z,26.14
2022-08-09T07:11:06.265Z,26.21
2022-08-09T07:12:42.007Z,26.20
2022-08-09T07:14:26.615Z,26.23
2022-08-09T07:16:41.668Z,26.23
2022-08-09T07:17:52.665Z,26.23
2022-08-09T07:19:28.825Z,26.26
2022-08-09T07:21:01.612Z,26.31
2022-08-09T07:22:36.250Z,26.33
2022-08-09T07:24:14.698Z,26.37
2022-08-09T07:25:48.240Z,26.43
2022-08-09T07:29:11.861Z,26.61
2022-08-09T07:30:45.843Z,26.70
2022-08-09T07:32:20.995Z,26.77
2022-08-09T07:33:55.885Z,26.83
2022-08-09T07:35:28.879Z,26.93
2022-08-09T07:37:15.929Z,27.09
2022-08-09T07:38:56.838Z,27.15
2022-08-09T07:41:00.514Z,27.23
2022-08-09T07:42:32.518Z,27.32
2022-08-09T07:44:05.560Z,27.40
2022-08-09T07:45:40.917Z,27.45
2022-08-09T07:47:13.272Z,27.48
2022-08-09T07:48:59.629Z,27.53
2022-08-09T07:50:36.723Z,27.57
2022-08-09T07:52:17.219Z,27.61
2022-08-09T07:54:04.800Z,27.63
2022-08-09T07:55:41.568Z,27.61
2022-08-09T07:57:35.954Z,27.62
2022-08-09T07:59:15.772Z,27.66
2022-08-09T08:01:05.968Z,27.73
2022-08-09T08:02:42.401Z,27.78
2022-08-09T08:04:15.415Z,27.77
2022-08-09T08:05:54.285Z,27.75
2022-08-09T08:08:43.397Z,27.76
2022-08-09T08:09:38.588Z,27.82
2022-08-09T08:12:11.045Z,27.87
2022-08-09T08:13:10.332Z,27.91
2022-08-09T08:14:43.596Z,27.96
2022-08-09T08:16:29.599Z,27.99
2022-08-09T08:18:04.374Z,28.03
2022-08-09T08:19:37.263Z,28.09
2022-08-09T08:21:12.486Z,28.12
2022-08-09T08:22:48.438Z,28.17
2022-08-09T08:24:20.840Z,28.20
2022-08-09T08:26:06.483Z,28.24
2022-08-09T08:27:41.060Z,28.36
2022-08-09T08:29:15.390Z,28.45
2022-08-09T08:30:52.605Z,28.54
2022-08-09T08:32:29.269Z,28.63
2022-08-09T08:34:02.393Z,28.74
2022-08-09T08:35:58.398Z,28.78
2022-08-09T08:37:41.396Z,28.81
2022-08-09T08:39:23.456Z,28.88
2022-08-09T08:40:56.769Z,28.94
2022-08-09T08:42:31.875Z,29.02
2022-08-09T08:44:05.487Z,29.10
2022-08-09T08:45:53.563Z,29.18
2022-08-09T08:47:38.565Z,29.21
2022-08-09T08:49:19.119Z,29.27
2022-08-09T08:50:52.168Z,29.35
2022-08-09T08:52:59.765Z,29.43
2022-08-09T08:54:29.669Z,29.46
2022-08-09T08:56:02.734Z,29.52
2022-08-09T08:57:35.878Z,29.55
2022-08-09T08:59:19.454Z,29.61
2022-08-09T09:00:54.277Z,29.60
2022-08-09T09:02:31.833Z,29.66
2022-08-09T09:04:05.531Z,29.70
2022-08-09T09:06:00.149Z,29.69
2022-08-09T09:07:36.920Z,29.75
2022-08-09T09:09:21.163Z,29.76
2022-08-09T09:11:13.636Z,29.83
2022-08-09T09:12:50.473Z,29.80
2022-08-09T09:14:26.497Z,29.84
2022-08-09T09:15:58.938Z,29.83
2022-08-09T09:17:48.571Z,29.89
2022-08-09T09:19:40.727Z,29.92
2022-08-09T09:21:13.918Z,29.98
2022-08-09T09:23:01.945Z,30.06
2022-08-09T09:24:38.007Z,30.11
2022-08-09T09:26:12.773Z,30.11
2022-08-09T09:28:04.161Z,30.10
2022-08-09T09:30:11.543Z,30.15
2022-08-09T09:32:06.039Z,30.20
2022-08-09T09:33:44.606Z,30.24
2022-08-09T09:35:17.755Z,30.30
2022-08-09T09:36:54.249Z,30.39
2022-08-09T09:38:43.423Z,30.43
2022-08-09T09:40:17.705Z,30.40
2022-08-09T09:41:51.093Z,30.49
2022-08-09T09:43:23.457Z,30.52
2022-08-09T09:45:01.041Z,30.56
2022-08-09T09:46:42.950Z,30.58
2022-08-09T09:48:19.560Z,30.59
2022-08-09T09:50:07.065Z,30.60
2022-08-09T09:51:47.847Z,30.67
2022-08-09T09:53:57.269Z,30.72
2022-08-09T09:55:28.924Z,30.74
2022-08-09T09:58:03.292Z,30.74
2022-08-09T09:59:14.162Z,30.62
2022-08-09T10:00:58.949Z,30.67
2022-08-09T10:02:45.847Z,30.74
2022-08-09T10:04:23.006Z,30.78
2022-08-09T10:06:05.008Z,30.81
2022-08-09T10:07:37.977Z,30.71
2022-08-09T10:09:54.557Z,30.79
2022-08-09T10:11:59.526Z,30.80
2022-08-09T10:13:42.940Z,30.78
2022-08-09T10:15:25.538Z,30.85
2022-08-09T10:17:39.609Z,30.89
2022-08-09T10:19:06.761Z,30.96
2022-08-09T10:20:45.164Z,31.01
2022-08-09T10:22:29.207Z,30.98
2022-08-09T10:24:03.949Z,30.90
2022-08-09T10:26:07.626Z,30.94
2022-08-09T10:27:34.614Z,30.92
2022-08-09T10:29:38.039Z,31.02
2022-08-09T10:32:59.422Z,31.21
2022-08-09T10:34:33.582Z,31.24
2022-08-09T10:36:12.262Z,31.24
2022-08-09T10:37:45.158Z,31.23
2022-08-09T10:39:19.936Z,31.21
2022-08-09T10:40:52.997Z,31.27
2022-08-09T10:42:28.702Z,31.29
2022-08-09T10:44:04.915Z,31.37
2022-08-09T10:45:58.421Z,31.45
2022-08-09T10:48:19.496Z,31.48
2022-08-09T10:49:54.579Z,31.41
2022-08-09T10:51:29.887Z,31.39
2022-08-09T10:53:23.229Z,31.33
2022-08-09T10:54:55.821Z,31.30
2022-08-09T10:56:30.634Z,31.30
2022-08-09T10:58:03.890Z,31.33
2022-08-09T10:59:43.151Z,31.33
2022-08-09T11:03:13.915Z,31.39
2022-08-09T11:03:28.042Z,31.50
2022-08-09T11:05:24.953Z,31.57
2022-08-09T11:07:02.201Z,31.56
2022-08-09T11:08:47.045Z,31.61
2022-08-09T11:10:53.224Z,31.64
2022-08-09T11:12:30.332Z,31.66
2022-08-09T11:14:38.512Z,31.74
2022-08-09T11:16:47.154Z,31.77
2022-08-09T11:18:46.283Z,31.75
2022-08-09T11:20:39.286Z,31.88
2022-08-09T11:22:24.253Z,31.94
2022-08-09T11:24:05.046Z,32.06
2022-08-09T11:25:47.111Z,32.15
2022-08-09T11:28:03.789Z,32.18
2022-08-09T11:30:05.266Z,32.21
2022-08-09T11:31:52.506Z,32.24
2022-08-09T11:33:48.063Z,32.33
2022-08-09T11:35:34.831Z,32.40
2022-08-09T11:37:40.681Z,32.45
2022-08-09T11:39:13.749Z,32.42
2022-08-09T11:40:49.890Z,32.38
2022-08-09T11:42:49.013Z,32.42
2022-08-09T11:44:21.753Z,32.38
2022-08-09T11:46:02.338Z,32.43
2022-08-09T11:48:01.308Z,32.39
2022-08-09T11:50:56.849Z,32.36
2022-08-09T11:53:02.757Z,32.35
2022-08-09T11:54:27.606Z,32.40
2022-08-09T11:56:14.944Z,32.45
2022-08-09T11:58:00.999Z,32.30
2022-08-09T11:59:44.344Z,32.20
2022-08-09T12:02:18.262Z,32.28
2022-08-09T12:03:56.668Z,32.42
2022-08-09T12:05:42.288Z,32.49
2022-08-09T12:07:19.593Z,32.42
2022-08-09T12:08:54.039Z,32.34
2022-08-09T12:10:38.807Z,32.26
2022-08-09T12:12:28.540Z,32.17
2022-08-09T12:14:36.464Z,32.11
2022-08-09T12:16:01.011Z,32.14
2022-08-09T12:17:44.556Z,32.20
2022-08-09T12:19:29.630Z,32.32
2022-08-09T12:21:03.206Z,32.42
2022-08-09T12:22:35.631Z,32.49
2022-08-09T12:24:10.249Z,32.58
2022-08-09T12:25:49.277Z,32.66
2022-08-09T12:29:13.385Z,32.66
2022-08-09T12:29:43.979Z,32.71
2022-08-09T12:31:58.785Z,32.70
2022-08-09T12:33:22.317Z,32.72
2022-08-09T12:35:02.995Z,32.85
2022-08-09T12:36:58.813Z,33.00
2022-08-09T12:38:42.032Z,33.10
2022-08-09T12:40:18.456Z,33.19
2022-08-09T12:41:51.675Z,33.18
2022-08-09T12:44:05.380Z,33.18
2022-08-09T12:45:33.484Z,33.04
2022-08-09T12:47:11.003Z,32.69
2022-08-09T12:48:45.057Z,32.59
2022-08-09T12:50:23.403Z,32.49
2022-08-09T12:52:01.605Z,32.43
2022-08-09T12:53:38.801Z,32.36
2022-08-09T12:56:12.981Z,32.29
2022-08-09T12:57:40.055Z,32.18
2022-08-09T12:59:14.304Z,32.06
2022-08-09T13:00:48.725Z,31.93
2022-08-09T13:02:21.385Z,31.78
2022-08-09T13:04:05.711Z,31.66
2022-08-09T13:05:51.618Z,31.55
2022-08-09T13:07:51.064Z,31.35
2022-08-09T13:09:32.121Z,31.41
2022-08-09T13:11:23.163Z,31.51
2022-08-09T13:13:09.671Z,31.70
2022-08-09T13:14:48.845Z,31.95
2022-08-09T13:16:22.652Z,32.13
2022-08-09T13:18:05.696Z,32.32
2022-08-09T13:20:09.799Z,32.50
2022-08-09T13:22:45.601Z,32.63
2022-08-09T13:24:17.232Z,32.58
2022-08-09T13:25:54.705Z,32.42
2022-08-09T13:27:31.195Z,32.29
2022-08-09T13:29:17.776Z,32.16
2022-08-09T13:32:13.912Z,32.05
2022-08-09T13:33:02.985Z,31.92
2022-08-09T13:34:40.458Z,31.86
2022-08-09T13:36:41.538Z,31.80
2022-08-09T13:38:17.557Z,31.82
2022-08-09T13:41:56.659Z,31.93
2022-08-09T13:42:00.934Z,32.14
2022-08-09T13:43:39.681Z,32.28
2022-08-09T13:45:13.148Z,32.42
2022-08-09T13:47:16.692Z,32.57
2022-08-09T13:48:42.288Z,32.67
2022-08-09T13:50:30.745Z,32.80
2022-08-09T13:52:05.040Z,32.86
2022-08-09T13:53:44.682Z,32.95
2022-08-09T13:55:17.590Z,33.03
2022-08-09T13:56:51.415Z,33.09
2022-08-09T13:58:23.741Z,33.15
2022-08-09T13:59:58.283Z,33.18
2022-08-09T14:02:01.316Z,33.24
2022-08-09T14:04:04.821Z,33.30
2022-08-09T14:05:57.102Z,33.37
2022-08-09T14:07:08.909Z,33.34
2022-08-09T14:08:42.871Z,33.37
2022-08-09T14:10:17.470Z,33.39
2022-08-09T14:12:15.335Z,33.42
2022-08-09T14:14:22.254Z,33.44
2022-08-09T14:16:10.491Z,33.35
2022-08-09T14:18:16.445Z,33.45
2022-08-09T14:19:26.471Z,33.52
2022-08-09T14:21:05.860Z,33.60
2022-08-09T14:22:38.832Z,33.61
2022-08-09T14:24:18.673Z,33.61
2022-08-09T14:25:57.112Z,33.63
2022-08-09T14:27:34.187Z,33.59
2022-08-09T14:30:34.077Z,33.57
2022-08-09T14:31:18.516Z,33.53
2022-08-09T14:32:55.907Z,33.51
2022-08-09T14:34:32.700Z,33.51
2022-08-09T14:36:19.792Z,33.49
2022-08-09T14:38:02.330Z,33.44
2022-08-09T14:39:46.516Z,33.41
2022-08-09T14:41:39.670Z,33.44
2022-08-09T14:43:18.515Z,33.39
2022-08-09T14:45:00.051Z,33.36
2022-08-09T14:46:58.036Z,33.26
2022-08-09T14:48:26.735Z,33.18
2022-08-09T14:50:02.067Z,33.14
2022-08-09T14:51:41.934Z,33.06
2022-08-09T14:53:15.430Z,32.95
2022-08-09T14:54:49.233Z,32.81
2022-08-09T14:56:22.718Z,32.62
2022-08-09T14:57:59.597Z,32.28
2022-08-09T14:59:31.991Z,32.11
2022-08-09T15:01:11.270Z,31.82
2022-08-09T15:02:47.356Z,31.52
2022-08-09T15:04:24.020Z,31.24
2022-08-09T15:06:01.683Z,30.99
2022-08-09T15:07:36.535Z,30.80
2022-08-09T15:09:09.010Z,30.72
2022-08-09T15:10:42.505Z,30.69
2022-08-09T15:12:14.904Z,30.61
2022-08-09T15:13:56.499Z,30.50
2022-08-09T15:15:38.993Z,30.38
2022-08-09T15:17:12.213Z,30.33
2022-08-09T15:18:49.416Z,30.16
2022-08-09T15:21:55.134Z,30.05
2022-08-09T15:22:17.541Z,30.08
2022-08-09T15:24:01.493Z,30.06
2022-08-09T15:25:41.705Z,30.10
2022-08-09T15:27:14.106Z,30.08
2022-08-09T15:28:54.789Z,30.16
2022-08-09T15:31:00.671Z,30.19
2022-08-09T15:32:29.388Z,30.19
2022-08-09T15:34:31.977Z,30.24
2022-08-09T15:36:01.501Z,30.23
2022-08-09T15:37:57.263Z,30.26
2022-08-09T15:39:34.803Z,30.23
2022-08-09T15:41:22.539Z,30.20
2022-08-09T15:42:55.026Z,30.17
2022-08-09T15:44:27.796Z,30.15
2022-08-09T15:46:31.641Z,30.11
2022-08-09T15:48:05.203Z,30.10
2022-08-09T15:49:40.294Z,30.10
2022-08-09T15:52:01.912Z,30.13
2022-08-09T15:54:03.884Z,30.18
2022-08-09T15:55:21.094Z,30.22
2022-08-09T15:56:53.305Z,30.25
2022-08-09T15:58:27.010Z,30.27
2022-08-09T15:59:59.729Z,30.30
2022-08-09T16:01:35.492Z,30.32
2022-08-09T16:03:08.539Z,30.33
2022-08-09T16:04:42.777Z,30.32
2022-08-09T16:06:27.375Z,30.29
2022-08-09T16:08:08.533Z,30.33
2022-08-09T16:10:02.484Z,30.33
2022-08-09T16:11:37.973Z,30.37
2022-08-09T16:13:20.964Z,30.36
2022-08-09T16:15:03.173Z,30.38
2022-08-09T16:16:37.995Z,30.40
2022-08-09T16:18:11.889Z,30.41
2022-08-09T16:19:49.363Z,30.43
2022-08-09T16:21:37.970Z,30.43
2022-08-09T16:23:11.971Z,30.42
2022-08-09T16:24:45.249Z,30.43
2022-08-09T16:26:35.316Z,30.41
2022-08-09T16:28:12.127Z,30.35
2022-08-09T16:29:50.644Z,30.34
2022-08-09T16:32:11.103Z,30.27
2022-08-09T16:33:18.530Z,30.20
2022-08-09T16:34:56.513Z,30.14
2022-08-09T16:36:30.933Z,30.05
2022-08-09T16:38:03.950Z,29.98
2022-08-09T16:39:47.861Z,29.95
2022-08-09T16:42:02.689Z,29.84
2022-08-09T16:43:20.912Z,29.74
2022-08-09T16:44:53.703Z,29.63
2022-08-09T16:46:29.856Z,29.51
2022-08-09T16:48:37.913Z,29.34
2022-08-09T16:50:29.396Z,29.18
2022-08-09T16:51:53.851Z,29.01
2022-08-09T16:53:34.275Z,28.87
2022-08-09T16:55:08.125Z,28.71
2022-08-09T16:56:49.538Z,28.54
2022-08-09T16:58:22.537Z,28.43
2022-08-09T16:59:57.458Z,28.34
2022-08-09T17:01:34.011Z,28.26
2022-08-09T17:03:07.974Z,28.19
2022-08-09T17:04:53.737Z,28.12
2022-08-09T17:06:28.840Z,27.98
2022-08-09T17:08:46.675Z,27.83
2022-08-09T17:10:01.744Z,27.65
2022-08-09T17:11:40.431Z,27.48
2022-08-09T17:13:14.618Z,27.35
2022-08-09T17:14:49.121Z,27.23
2022-08-09T17:16:23.152Z,27.12
2022-08-09T17:18:00.382Z,26.97
2022-08-09T17:19:46.331Z,26.84
2022-08-09T17:21:20.399Z,26.67
2022-08-09T17:22:52.896Z,26.66
2022-08-09T17:24:28.308Z,26.58
2022-08-09T17:26:03.369Z,26.48
2022-08-09T17:27:40.130Z,26.39
2022-08-09T17:29:22.029Z,26.24
2022-08-09T17:30:56.157Z,26.10
2022-08-09T17:32:37.478Z,26.03
2022-08-09T17:35:01.364Z,25.96
2022-08-09T17:36:03.703Z,25.87
2022-08-09T17:38:11.705Z,25.74
2022-08-09T17:39:52.248Z,25.58
2022-08-09T17:41:22.375Z,25.47
2022-08-09T17:43:32.589Z,25.50
2022-08-09T17:45:03.101Z,25.48
2022-08-09T17:46:38.945Z,25.45
2022-08-09T17:48:29.333Z,25.43
2022-08-09T17:50:12.561Z,25.34
2022-08-09T17:51:50.863Z,25.21
2022-08-09T17:53:23.109Z,25.04
2022-08-09T17:54:55.663Z,24.90
2022-08-09T17:56:35.473Z,24.82
2022-08-09T17:58:09.726Z,24.72
2022-08-09T17:59:42.976Z,24.66
2022-08-09T18:01:22.745Z,24.55
2022-08-09T18:02:58.362Z,24.45
2022-08-09T18:04:31.188Z,24.38
2022-08-09T18:06:03.904Z,24.32
2022-08-09T18:07:48.886Z,24.35
2022-08-09T18:09:23.684Z,24.31
2022-08-09T18:11:01.998Z,24.29
2022-08-09T18:12:40.754Z,24.26
2022-08-09T18:14:27.828Z,24.29
2022-08-09T18:16:07.520Z,24.26
2022-08-09T18:18:02.090Z,24.26
2022-08-09T18:20:54.133Z,24.28
2022-08-09T18:21:26.224Z,24.27
2022-08-09T18:23:04.681Z,24.20
2022-08-09T18:24:38.547Z,24.17
2022-08-09T18:26:11.748Z,24.10
2022-08-09T18:28:02.032Z,24.00
2022-08-09T18:30:40.805Z,23.95
2022-08-09T18:31:51.277Z,23.87
2022-08-09T18:33:23.280Z,23.83
2022-08-09T18:34:55.984Z,23.75
2022-08-09T18:36:32.426Z,23.71
2022-08-09T18:38:10.156Z,23.64
2022-08-09T18:39:48.365Z,23.58
2022-08-09T18:41:21.104Z,23.51
2022-08-09T18:43:00.065Z,23.44
2022-08-09T18:44:32.769Z,23.41
2022-08-09T18:46:49.221Z,23.43
2022-08-09T18:47:58.694Z,23.39
2022-08-09T18:49:31.854Z,23.34
2022-08-09T18:51:05.105Z,23.29
2022-08-09T18:52:39.051Z,23.23
2022-08-09T18:54:20.017Z,23.22
2022-08-09T18:56:05.800Z,23.19
2022-08-09T18:57:44.512Z,23.22
2022-08-09T18:59:17.718Z,23.29
2022-08-09T19:00:53.584Z,23.28
2022-08-09T19:02:33.142Z,23.27
2022-08-09T19:04:09.352Z,23.34
2022-08-09T19:06:02.101Z,23.35
2022-08-09T19:07:34.569Z,23.29
2022-08-09T19:09:07.922Z,23.28
2022-08-09T19:10:46.385Z,23.24
2022-08-09T19:12:20.842Z,23.21
2022-08-09T19:13:53.907Z,23.19
2022-08-09T19:15:32.456Z,23.15
2022-08-09T19:17:04.952Z,23.13
2022-08-09T19:18:45.384Z,23.14
2022-08-09T19:20:18.089Z,23.16
2022-08-09T19:22:04.317Z,23.18
2022-08-09T19:24:33.235Z,23.14
2022-08-09T19:26:01.554Z,23.12
2022-08-09T19:27:28.646Z,23.10
2022-08-09T19:29:03.488Z,23.08
2022-08-09T19:30:44.630Z,23.07
2022-08-09T19:32:17.318Z,23.05
2022-08-09T19:33:49.684Z,22.98
2022-08-09T19:35:26.210Z,22.91
2022-08-09T19:36:58.856Z,22.89
2022-08-09T19:38:31.343Z,22.87
2022-08-09T19:40:05.760Z,22.83
2022-08-09T19:41:38.456Z,22.74
2022-08-09T19:43:16.285Z,22.67
2022-08-09T19:45:08.140Z,22.56
2022-08-09T19:46:50.508Z,22.51
2022-08-09T19:49:00.520Z,22.44
2022-08-09T19:50:48.950Z,22.39
2022-08-09T19:52:12.317Z,22.37
2022-08-09T19:53:45.580Z,22.32
2022-08-09T19:55:30.680Z,22.29
2022-08-09T19:57:16.418Z,22.21
2022-08-09T19:58:56.189Z,22.16
2022-08-09T20:00:29.086Z,22.10
2022-08-09T20:02:15.626Z,22.07
2022-08-09T20:04:17.954Z,22.02
2022-08-09T20:05:50.815Z,21.92
2022-08-09T20:07:24.898Z,21.88
2022-08-09T20:09:06.355Z,21.89
2022-08-09T20:10:38.583Z,21.86
2022-08-09T20:12:31.704Z,21.84
2022-08-09T20:14:08.449Z,21.82
2022-08-09T20:16:33.645Z,21.76
2022-08-09T20:17:41.666Z,21.67
2022-08-09T20:19:47.706Z,21.58
2022-08-09T20:21:13.942Z,21.52
2022-08-09T20:22:48.654Z,21.47
2022-08-09T20:24:31.836Z,21.47
2022-08-09T20:26:06.780Z,21.46
2022-08-09T20:27:43.708Z,21.45
2022-08-09T20:29:18.921Z,21.45
2022-08-09T20:30:52.241Z,21.42
2022-08-09T20:32:41.386Z,21.42
2022-08-09T20:34:18.021Z,21.36
2022-08-09T20:35:53.758Z,21.40
2022-08-09T20:38:19.545Z,21.39
2022-08-09T20:40:14.021Z,21.41
2022-08-09T20:41:13.108Z,21.46
2022-08-09T20:42:46.651Z,21.44
2022-08-09T20:44:36.164Z,21.41
2022-08-09T20:46:33.210Z,21.38
2022-08-09T20:48:01.258Z,21.36
2022-08-09T20:49:33.777Z,21.34
2022-08-09T20:51:07.386Z,21.30
2022-08-09T20:52:53.477Z,21.22
2022-08-09T20:54:26.196Z,21.16
2022-08-09T20:56:02.917Z,21.11
2022-08-09T20:58:05.436Z,21.05
2022-08-09T20:59:50.144Z,21.00
2022-08-09T21:01:34.516Z,20.91
2022-08-09T21:03:12.298Z,20.85
2022-08-09T21:05:55.899Z,20.75
2022-08-09T21:06:44.669Z,20.67
2022-08-09T21:08:17.046Z,20.66
2022-08-09T21:09:56.701Z,20.65
2022-08-09T21:13:23.567Z,20.58
2022-08-09T21:14:57.531Z,20.52
2022-08-09T21:16:30.552Z,20.46
2022-08-09T21:18:25.888Z,20.36
2022-08-09T21:20:17.856Z,20.34
2022-08-09T21:21:56.750Z,20.33
2022-08-09T21:23:47.827Z,20.31
2022-08-09T21:25:44.047Z,20.29
2022-08-09T21:28:01.507Z,20.21
2022-08-09T21:29:24.877Z,20.20
2022-08-09T21:30:57.014Z,20.16
2022-08-09T21:32:33.818Z,20.10
2022-08-09T21:34:07.836Z,20.07
2022-08-09T21:35:51.046Z,20.06
2022-08-09T21:37:25.608Z,20.05
2022-08-09T21:39:07.422Z,20.04
2022-08-09T21:40:39.674Z,20.00
2022-08-09T21:42:13.178Z,19.94
2022-08-09T21:43:56.793Z,19.92
2022-08-09T21:45:31.133Z,19.88
2022-08-09T21:47:17.380Z,19.83
2022-08-09T21:48:53.694Z,19.79
2022-08-09T21:50:38.631Z,19.79
2022-08-09T21:52:17.803Z,19.78
2022-08-09T21:53:54.150Z,19.82
2022-08-09T21:55:26.486Z,19.81
2022-08-09T21:57:00.421Z,19.83
2022-08-09T21:58:33.299Z,19.80
2022-08-09T22:00:14.907Z,19.77
2022-08-09T22:02:00.385Z,19.71
2022-08-09T22:03:33.527Z,19.70
2022-08-09T22:05:23.419Z,19.67
2022-08-09T22:07:02.140Z,19.64
2022-08-09T22:08:36.828Z,19.64
2022-08-09T22:10:11.144Z,19.61
2022-08-09T22:12:04.298Z,19.58
2022-08-09T22:13:37.266Z,19.54
2022-08-09T22:15:16.551Z,19.50
2022-08-09T22:16:49.009Z,19.41
2022-08-09T22:18:23.992Z,19.38
2022-08-09T22:20:03.225Z,19.33
2022-08-09T22:21:50.228Z,19.32
2022-08-09T22:23:25.447Z,19.33
2022-08-09T22:26:06.755Z,19.34
2022-08-09T22:26:51.742Z,19.31
2022-08-09T22:28:29.686Z,19.32
2022-08-09T22:30:05.518Z,19.30
2022-08-09T22:31:44.672Z,19.31
2022-08-09T22:33:42.721Z,19.28
2022-08-09T22:36:01.492Z,19.29
2022-08-09T22:37:13.838Z,19.28
2022-08-09T22:38:46.259Z,19.27
2022-08-09T22:40:20.378Z,19.27
2022-08-09T22:41:52.627Z,19.26
2022-08-09T22:44:00.599Z,19.26
2022-08-09T22:48:12.783Z,19.26
2022-08-09T22:48:18.624Z,19.26
2022-08-09T22:49:10.189Z,19.30
2022-08-09T22:50:42.697Z,19.28
2022-08-09T22:52:25.295Z,19.28
2022-08-09T22:54:03.121Z,19.28
2022-08-09T22:57:18.009Z,19.23
2022-08-09T22:58:53.853Z,19.32
2022-08-09T23:00:29.592Z,19.36
2022-08-09T23:02:01.845Z,19.41
2022-08-09T23:04:04.252Z,19.48
2022-08-09T23:05:27.865Z,19.48
2022-08-09T23:08:01.513Z,19.45
2022-08-09T23:09:12.724Z,19.42
2022-08-09T23:10:44.846Z,19.36
2022-08-09T23:12:19.866Z,19.32
2022-08-09T23:13:56.893Z,19.29
2022-08-09T23:15:29.857Z,19.26
2022-08-09T23:17:01.885Z,19.21
2022-08-09T23:18:33.909Z,19.17
2022-08-09T23:20:08.369Z,19.17